Aeroporto :
LOGIN :

Iscrizione | Disclaimer

   EN    FR    IT 

 










Sommario :    VFR   VFR Marginale   IFR   IFR Intensivo   IFR Molto Intensivo
Visibilità : 
Base nubi : 
>= 8 km
>= 3000ft
5 / 8 km
1000 / 3000 ft
1500m / 5 km
500 / 1000 ft
800 / 1500m
200 / 500 ft
< 800m
< 200 ft
Simboli :   Temporali  Nebbia  Neve Forte  Precipitazioni Forti  Vento > 20 kt
SIGMETs :   Varie  Temporali  Ghiacco  Turbolenza  Onda orograficha  Ceneri Vulcaniche






- Altitudine del aeroporto : 102 ft
- Codice IATA : KEL


EDHK - Holtenau

ULTIMO METAR :
  • 180620Z 25012KT 210V270 9999 -SHRA BKN019 05/02 Q1009

METARs OBSOLETI :
  • 180550Z 25013KT 9999 -SHRA SCT020 06/02 Q1009
  • 180520Z 25011KT 220V280 9999 -SHRA BKN020 06/03 Q1009

TAF TAF EDHK
Valido dal 18 a 06 ore il 18 a 15 ore UTC


180525Z 1806/1815 24015G30KT 9999 BKN025
PROB30
TEMPO 1809/1815 25020G35KT SHRA SCT010 BKN015CB



MetMap, La meteo Aeronautica in un colpo d'occhio ! - Copyright ORBIFLY Dicembre 2007 - Disclaimer

ORBIFLY MET'MAP TEAM :

Programmazione e sviluppo : Alexandra Zaïnal
Concezione : Baudouin d'Aumeries
Aiuto per la programmazione : Marc-Olivier Méhu
Supporto tecnico e logistico : Manuel Goepfert
Aiuto per la traduzione : Arnaldo La Scala

Contatto : metmap@orbifly.com




FONTI E CREDITI :

   NOAA